Terminal Aerodrome Forecast
Issued by NWS North Platte, NE

Home | Current Version | Previous Version | Graphics & Text | Print | Product List | Glossary On
Versions: 1 2 3 4 5 6 7 8 9 10 11 12 13 14 15 16 17 18 19
000
FTUS43 KLBF 261700
TAFVTN
TAF
KVTN 261722Z 2618/2718 35008KT P6SM SCT040
     FM262000 36007KT P6SM BKN040
     FM270100 VRB05KT P6SM SKC
     FM271400 19010KT P6SM BKN070=

USA.gov is the U.S. government's official web portal to all federal, state and local government web resources and services.